Time;durP1;ratioP1;P1;durP2;ratioP2;P2;SDS_P1;SDS_P2;PMS_P1;PMS_P2;Temp;Humidity;BMP_temperature;BMP_pressure;BME280_temperature;BME280_humidity;BME280_pressure;Samples;Min_cycle;Max_cycle;Signal;HPM_P1;HPM_P2
2021/08/28 00:00:53;;;;;;;21.95;4.28;;;;;;;15.27;84.16;102063.13;5066316;28;20499;-42
2021/08/28 00:03:19;;;;;;;27.67;4.22;;;;;;;15.29;84.21;102046.66;5068088;28;20020;-41
2021/08/28 00:05:45;;;;;;;19.85;3.95;;;;;;;15.34;84.00;102049.66;5054989;28;20392;-39
2021/08/28 00:08:10;;;;;;;18.80;4.15;;;;;;;15.33;83.81;102045.28;5054849;28;20025;-39
2021/08/28 00:10:36;;;;;;;15.27;3.20;;;;;;;15.34;83.41;102050.50;5071335;28;20033;-40
2021/08/28 00:13:02;;;;;;;20.13;4.43;;;;;;;15.38;83.47;102045.56;5070838;28;20124;-41
2021/08/28 00:15:27;;;;;;;19.42;3.95;;;;;;;15.42;83.38;102046.03;5055019;28;20111;-41
2021/08/28 00:17:53;;;;;;;21.98;4.45;;;;;;;15.39;83.56;102041.81;5054595;28;20133;-41
2021/08/28 00:20:18;;;;;;;22.13;3.85;;;;;;;15.35;83.66;102044.06;5055010;28;20032;-40
2021/08/28 00:22:43;;;;;;;20.73;4.57;;;;;;;15.37;83.58;102047.41;5056177;28;20025;-40
2021/08/28 00:25:10;;;;;;;17.52;3.95;;;;;;;15.34;84.35;102031.50;5074388;28;20111;-42
2021/08/28 00:27:35;;;;;;;22.98;4.47;;;;;;;15.35;84.23;102040.50;5074509;28;20445;-41
2021/08/28 00:30:01;;;;;;;21.40;4.50;;;;;;;15.36;84.59;102047.63;5073830;28;20043;-40
2021/08/28 00:32:26;;;;;;;20.88;3.72;;;;;;;15.42;84.13;102046.88;5074624;28;20398;-40
2021/08/28 00:34:51;;;;;;;15.75;3.75;;;;;;;15.45;84.12;102041.06;5055185;28;20116;-41
2021/08/28 00:37:17;;;;;;;13.25;3.85;;;;;;;15.49;83.61;102053.25;5054585;28;20032;-40
2021/08/28 00:39:42;;;;;;;17.17;3.70;;;;;;;15.52;83.61;102041.19;5054453;28;20032;-41
2021/08/28 00:42:07;;;;;;;23.42;4.25;;;;;;;15.49;83.94;102042.41;5054127;28;20036;-39
2021/08/28 00:44:37;;;;;;;29.02;4.82;;;;;;;15.53;83.61;102037.44;5067148;28;20368;-40
2021/08/28 00:47:02;;;;;;;31.38;4.65;;;;;;;15.53;83.80;102046.44;5054538;28;20017;-40
2021/08/28 00:49:28;;;;;;;19.65;3.83;;;;;;;15.51;83.66;102039.50;5054005;28;20033;-40
2021/08/28 00:51:53;;;;;;;12.18;3.60;;;;;;;15.51;83.50;102037.63;5054021;28;20031;-41
2021/08/28 00:54:19;;;;;;;17.88;4.25;;;;;;;15.49;83.63;102036.97;5066940;28;20128;-41
2021/08/28 00:56:44;;;;;;;15.85;4.13;;;;;;;15.49;83.58;102044.28;5073945;28;20487;-40
2021/08/28 00:59:09;;;;;;;18.00;3.88;;;;;;;15.46;83.88;102047.38;5054993;28;20033;-41
2021/08/28 01:01:38;;;;;;;15.70;3.40;;;;;;;15.45;83.63;102051.09;5064862;28;20040;-41
2021/08/28 01:04:05;;;;;;;18.27;4.13;;;;;;;15.47;83.69;102049.88;5060470;28;20029;-40
2021/08/28 01:06:48;;;;;;;23.48;4.35;;;;;;;15.47;84.00;102052.59;5052739;28;20029;-40
2021/08/28 01:09:18;;;;;;;17.80;3.72;;;;;;;15.54;83.03;102044.56;5052343;28;20025;-41
2021/08/28 01:11:54;;;;;;;20.65;3.60;;;;;;;15.55;83.58;102041.66;5052591;28;20048;-42
2021/08/28 01:14:24;;;;;;;18.75;4.25;;;;;;;15.61;83.01;102044.66;5060559;28;20068;-40
2021/08/28 01:16:52;;;;;;;21.50;4.00;;;;;;;15.67;83.13;102043.94;5060653;28;20029;-40
2021/08/28 01:19:39;;;;;;;24.77;4.15;;;;;;;15.58;83.37;102052.13;5072956;28;20094;-40
2021/08/28 01:22:13;;;;;;;22.80;4.43;;;;;;;15.55;83.61;102047.06;5072544;28;20020;-42
2021/08/28 01:24:41;;;;;;;16.35;4.00;;;;;;;15.56;83.73;102046.06;5056197;28;20044;-40
2021/08/28 01:27:12;;;;;;;13.45;3.40;;;;;;;15.61;83.30;102044.66;5062263;28;20030;-42
2021/08/28 01:29:38;;;;;;;17.05;3.60;;;;;;;15.61;83.20;102036.50;5052741;28;20040;-41
2021/08/28 01:32:03;;;;;;;17.10;3.90;;;;;;;15.64;82.92;102041.56;5051858;28;20021;-41
2021/08/28 01:34:31;;;;;;;16.13;4.03;;;;;;;15.63;83.07;102042.59;5067131;28;20107;-41
2021/08/28 01:36:57;;;;;;;22.25;4.22;;;;;;;15.63;83.55;102045.31;5054971;28;20107;-41
2021/08/28 01:39:23;;;;;;;23.38;4.07;;;;;;;15.57;83.75;102042.31;5053087;28;20553;-41
2021/08/28 01:41:54;;;;;;;12.13;3.40;;;;;;;15.59;84.08;102051.13;5055818;28;20500;-40
2021/08/28 01:44:20;;;;;;;16.77;3.80;;;;;;;15.59;84.25;102042.97;5059922;28;20025;-40
2021/08/28 01:46:47;;;;;;;22.50;4.47;;;;;;;15.58;84.14;102054.00;5071092;28;20043;-40
2021/08/28 01:49:13;;;;;;;18.45;3.88;;;;;;;15.61;84.03;102044.66;5059391;28;20029;-40
2021/08/28 01:51:39;;;;;;;26.98;4.00;;;;;;;15.68;84.28;102048.31;5056077;28;20408;-40
2021/08/28 01:54:05;;;;;;;22.10;4.60;;;;;;;15.74;83.61;102044.88;5063281;28;20050;-41
2021/08/28 01:56:31;;;;;;;11.27;3.35;;;;;;;15.77;83.71;102050.78;5072151;28;20028;-40
2021/08/28 01:58:57;;;;;;;15.38;3.50;;;;;;;15.81;83.49;102045.81;5058936;28;20048;-40
2021/08/28 02:01:23;;;;;;;25.90;4.13;;;;;;;15.77;84.22;102044.50;5061267;28;20057;-40
2021/08/28 02:03:49;;;;;;;22.25;3.88;;;;;;;15.75;83.88;102043.88;5064497;28;20044;-41
2021/08/28 02:06:23;;;;;;;21.33;3.97;;;;;;;15.75;83.99;102046.56;5063141;28;20468;-40
2021/08/28 02:08:58;;;;;;;19.65;3.63;;;;;;;15.80;83.81;102050.41;5068778;28;20089;-41
2021/08/28 02:11:28;;;;;;;22.35;4.50;;;;;;;15.82;84.30;102052.91;5054832;28;20053;-40
2021/08/28 02:13:58;;;;;;;18.55;3.63;;;;;;;15.91;83.75;102050.97;5061455;28;20346;-40
2021/08/28 02:16:25;;;;;;;12.18;3.30;;;;;;;15.99;83.50;102050.88;5071080;28;20040;-41
2021/08/28 02:19:00;;;;;;;20.60;4.60;;;;;;;15.96;83.56;102049.38;5058749;28;20083;-41
2021/08/28 02:21:26;;;;;;;16.08;3.63;;;;;;;16.05;83.11;102052.00;5063825;28;20111;-41
2021/08/28 02:24:02;;;;;;;15.43;3.53;;;;;;;16.11;82.23;102053.94;5061010;28;20029;-42
2021/08/28 02:26:35;;;;;;;12.95;3.05;;;;;;;16.09;81.58;102058.72;5061668;28;20124;-40
2021/08/28 02:29:03;;;;;;;13.82;3.40;;;;;;;16.05;81.76;102047.41;5072042;28;20384;-41
2021/08/28 02:31:41;;;;;;;15.90;3.72;;;;;;;16.04;81.67;102050.31;5071996;28;20107;-40
2021/08/28 02:34:08;;;;;;;19.23;3.75;;;;;;;15.98;81.80;102046.47;5058904;28;20033;-40
2021/08/28 02:36:34;;;;;;;17.23;4.22;;;;;;;15.98;81.92;102052.75;5065823;28;20031;-39
2021/08/28 02:39:00;;;;;;;16.73;3.72;;;;;;;15.94;81.75;102056.84;5071619;28;20029;-40
2021/08/28 02:41:27;;;;;;;17.75;3.65;;;;;;;15.89;81.99;102051.16;5050082;28;20128;-40
2021/08/28 02:43:53;;;;;;;20.33;3.70;;;;;;;15.83;82.32;102048.34;5061077;28;20028;-41
2021/08/28 02:46:18;;;;;;;12.93;3.30;;;;;;;15.80;82.31;102049.56;5071168;28;20105;-40
2021/08/28 02:48:44;;;;;;;15.55;3.75;;;;;;;15.75;82.63;102041.97;5069915;28;20429;-40
2021/08/28 02:51:10;;;;;;;18.08;3.72;;;;;;;15.73;82.33;102041.31;5050704;28;20021;-40
2021/08/28 02:53:39;;;;;;;14.40;3.25;;;;;;;15.74;82.32;102051.13;5052141;28;20021;-40
2021/08/28 02:56:05;;;;;;;12.65;3.25;;;;;;;15.71;82.08;102051.50;5052153;28;20033;-41
2021/08/28 02:58:31;;;;;;;20.55;3.63;;;;;;;15.67;82.35;102052.91;5050646;28;20074;-41
2021/08/28 03:00:56;;;;;;;15.75;3.58;;;;;;;15.69;82.29;102052.72;5054083;28;20056;-41
2021/08/28 03:03:22;;;;;;;14.73;3.92;;;;;;;15.69;81.97;102056.31;5050885;28;20483;-41
2021/08/28 03:05:49;;;;;;;13.77;3.58;;;;;;;15.67;81.58;102046.63;5070700;28;20094;-41
2021/08/28 03:08:16;;;;;;;17.90;3.40;;;;;;;15.67;81.59;102049.34;5088974;28;20032;-40
2021/08/28 03:10:45;;;;;;;16.40;3.55;;;;;;;15.68;81.33;102041.00;5079594;28;20123;-40
2021/08/28 07:30:21;;;;;;;11.98;3.35;;;;;;;17.87;72.74;102105.09;5087073;27;1209159;-40
2021/08/28 07:32:48;;;;;;;14.50;3.35;;;;;;;17.82;73.23;102109.47;5109747;28;20110;-41
2021/08/28 07:35:13;;;;;;;13.82;2.97;;;;;;;17.86;72.90;102105.31;5106997;28;20063;-40
2021/08/28 07:37:39;;;;;;;17.23;4.22;;;;;;;17.90;72.96;102104.69;5108466;28;20056;-40
2021/08/28 07:40:05;;;;;;;11.05;3.45;;;;;;;17.90;72.09;102101.97;5109178;28;20036;-40
2021/08/28 07:42:30;;;;;;;6.68;3.20;;;;;;;17.89;72.09;102108.47;5109351;28;20035;-40
2021/08/28 07:44:56;;;;;;;15.93;3.67;;;;;;;17.90;71.97;102112.88;5090605;28;20024;-41
2021/08/28 07:47:21;;;;;;;10.38;3.58;;;;;;;17.93;72.35;102114.34;5089624;28;20028;-40
2021/08/28 07:49:47;;;;;;;14.13;3.42;;;;;;;17.89;71.88;102118.53;5075505;28;20144;-41
2021/08/28 07:52:14;;;;;;;15.45;3.38;;;;;;;17.86;71.94;102119.75;5088980;28;20039;-40
2021/08/28 07:54:39;;;;;;;11.05;3.25;;;;;;;17.88;72.08;102119.56;5070860;28;20055;-41
2021/08/28 07:57:05;;;;;;;11.00;3.63;;;;;;;17.89;72.24;102119.34;5071225;28;20025;-41
2021/08/28 07:59:30;;;;;;;11.50;3.55;;;;;;;17.98;72.39;102125.47;5068792;28;20116;-40
2021/08/28 08:01:55;;;;;;;11.18;3.63;;;;;;;18.15;70.92;102128.75;5080389;28;20044;-41
2021/08/28 08:04:21;;;;;;;9.82;3.30;;;;;;;18.36;70.68;102134.09;5059825;28;20551;-41
2021/08/28 08:06:46;;;;;;;13.63;3.10;;;;;;;18.74;69.40;102130.03;5073849;28;20025;-41
2021/08/28 08:09:11;;;;;;;13.95;3.10;;;;;;;19.02;67.91;102128.06;5068592;28;20037;-41
2021/08/28 08:11:37;;;;;;;14.50;3.55;;;;;;;19.12;67.53;102127.66;5068697;28;20135;-41
2021/08/28 08:14:02;;;;;;;9.77;3.40;;;;;;;19.43;67.17;102124.34;5068338;28;20033;-41
2021/08/28 08:16:28;;;;;;;11.43;3.08;;;;;;;20.04;65.77;102127.88;5068767;28;20037;-40
2021/08/28 08:18:53;;;;;;;11.80;3.38;;;;;;;20.99;62.50;102133.63;5068595;28;20063;-40
2021/08/28 08:21:19;;;;;;;11.27;3.50;;;;;;;21.82;61.01;102136.13;5076844;28;20165;-41
2021/08/28 08:23:45;;;;;;;10.68;3.40;;;;;;;23.49;56.62;102137.63;5088748;28;20444;-41
2021/08/28 08:26:11;;;;;;;8.55;3.25;;;;;;;24.64;53.42;102149.84;5079392;28;20095;-41
2021/08/28 08:28:36;;;;;;;10.32;3.08;;;;;;;24.84;50.38;102149.44;5049999;28;20094;-40
2021/08/28 08:31:02;;;;;;;9.88;2.83;;;;;;;24.08;51.29;102141.22;5072097;28;20028;-41
2021/08/28 08:33:27;;;;;;;7.10;2.53;;;;;;;24.01;52.62;102136.94;5063550;28;20103;-41
2021/08/28 08:35:52;;;;;;;7.95;2.88;;;;;;;24.94;50.78;102143.31;5072907;28;20035;-41
2021/08/28 08:38:18;;;;;;;7.80;2.67;;;;;;;26.06;47.04;102145.19;5073663;28;20035;-41
2021/08/28 08:40:45;;;;;;;6.18;2.47;;;;;;;26.81;45.64;102144.78;5066365;28;20024;-41
2021/08/28 08:43:10;;;;;;;6.70;2.45;;;;;;;27.26;43.64;102152.72;5045451;28;20033;-40
2021/08/28 08:45:36;;;;;;;8.82;3.08;;;;;;;27.24;43.36;102143.84;5045548;28;20111;-40
2021/08/28 08:48:01;;;;;;;7.70;2.58;;;;;;;27.55;43.38;102144.94;5065131;28;20036;-40
2021/08/28 08:50:28;;;;;;;7.05;2.63;;;;;;;28.06;42.23;102144.47;5069084;28;20025;-40
2021/08/28 08:53:02;;;;;;;7.32;2.78;;;;;;;28.38;40.74;102144.34;5044808;28;20032;-42
2021/08/28 08:55:28;;;;;;;7.93;3.05;;;;;;;27.76;42.46;102145.91;5054422;28;20025;-41
2021/08/28 08:57:53;;;;;;;6.95;2.55;;;;;;;26.76;44.02;102137.25;5054329;28;20031;-41
2021/08/28 09:00:18;;;;;;;8.30;2.95;;;;;;;25.77;46.22;102141.69;5036462;28;20029;-40
2021/08/28 09:02:44;;;;;;;7.22;2.67;;;;;;;24.55;49.15;102143.09;5040736;28;20110;-40
2021/08/28 09:05:09;;;;;;;11.00;3.00;;;;;;;23.41;51.06;102147.03;5072729;28;20060;-41
2021/08/28 09:07:35;;;;;;;11.05;2.85;;;;;;;22.97;53.38;102140.13;5071065;28;20072;-40
2021/08/28 09:10:00;;;;;;;9.68;3.22;;;;;;;22.55;53.97;102140.84;5059402;28;20043;-40
2021/08/28 09:12:37;;;;;;;5.95;2.88;;;;;;;21.94;55.51;102140.91;5042339;28;20025;-40
2021/08/28 09:15:04;;;;;;;7.70;2.60;;;;;;;21.62;56.84;102143.72;5067730;28;20031;-41
2021/08/28 09:17:30;;;;;;;7.22;3.00;;;;;;;21.15;59.04;102138.56;5067238;28;20028;-40
2021/08/28 09:19:57;;;;;;;10.73;3.47;;;;;;;20.64;61.33;102142.19;5073990;28;20036;-40
2021/08/28 09:22:24;;;;;;;8.60;3.60;;;;;;;20.16;64.04;102139.81;5045425;28;20049;-41
2021/08/28 09:24:51;;;;;;;12.10;3.95;;;;;;;19.72;66.50;102146.81;5059726;28;20101;-40
2021/08/28 09:27:39;;;;;;;11.52;3.95;;;;;;;19.33;67.46;102139.47;5058912;28;20028;-40
2021/08/28 09:30:15;;;;;;;11.90;3.38;;;;;;;18.97;69.85;102146.94;5042894;28;20052;-41
2021/08/28 09:32:52;;;;;;;14.93;3.67;;;;;;;18.88;70.85;102142.72;5058250;28;20032;-41
2021/08/28 09:35:19;;;;;;;;;;;;;;;18.76;72.05;102150.66;5057416;28;20044;-41
2021/08/28 09:37:51;;;;;;;11.25;3.90;;;;;;;18.90;71.20;102150.69;5057880;28;19963;-41
2021/08/28 09:40:16;;;;;;;10.18;4.50;;;;;;;19.30;73.05;102155.19;5059332;28;20067;-41
2021/08/28 09:42:55;;;;;;;13.15;4.28;;;;;;;20.20;70.49;102152.03;5059270;28;20053;-40
2021/08/28 09:45:23;;;;;;;12.52;3.83;;;;;;;21.43;66.30;102160.09;5066694;28;20438;-42
2021/08/28 09:47:49;;;;;;;22.52;4.10;;;;;;;22.76;63.28;102161.47;5061401;28;20021;-41
2021/08/28 09:50:26;;;;;;;10.82;3.60;;;;;;;24.21;54.60;102162.16;5062909;28;20139;-42
2021/08/28 09:52:51;;;;;;;8.48;3.03;;;;;;;24.25;54.21;102160.59;5070925;28;20032;-42
2021/08/28 09:55:20;;;;;;;9.57;3.20;;;;;;;23.71;54.65;102162.59;5056613;28;20027;-41
2021/08/28 09:57:49;;;;;;;8.57;3.67;;;;;;;23.20;55.80;102161.34;5067735;28;20033;-41
2021/08/28 10:00:15;;;;;;;5.60;2.90;;;;;;;22.71;54.48;102163.25;5070425;28;20029;-41
2021/08/28 10:02:56;;;;;;;10.65;3.40;;;;;;;22.11;56.41;102162.00;5052969;28;20458;-41
2021/08/28 10:05:24;;;;;;;5.68;3.22;;;;;;;22.29;55.91;102160.38;5042326;28;20059;-41
2021/08/28 10:07:49;;;;;;;6.00;3.08;;;;;;;23.23;54.04;102158.13;5072449;28;20058;-41
2021/08/28 10:10:17;;;;;;;9.82;3.20;;;;;;;24.16;51.18;102148.28;5055254;28;20111;-41
2021/08/28 10:12:45;;;;;;;9.90;3.00;;;;;;;24.71;49.63;102156.06;5055097;28;20016;-41
2021/08/28 10:15:10;;;;;;;6.88;3.30;;;;;;;25.00;48.18;102153.31;5061483;28;20115;-41
2021/08/28 10:17:36;;;;;;;6.82;3.30;;;;;;;24.75;49.89;102151.75;5040898;28;20502;-40
2021/08/28 10:20:03;;;;;;;8.95;3.60;;;;;;;24.35;51.57;102148.94;5073294;28;20524;-41
2021/08/28 10:22:31;;;;;;;9.85;3.38;;;;;;;23.72;51.30;102152.47;5071104;28;20020;-39
2021/08/28 10:24:57;;;;;;;9.40;3.38;;;;;;;23.17;52.82;102150.78;5049143;28;20117;-40
2021/08/28 10:27:25;;;;;;;8.07;3.10;;;;;;;22.58;54.27;102148.63;5056183;28;20047;-40
2021/08/28 10:29:50;;;;;;;11.13;3.15;;;;;;;22.22;56.65;102159.59;5043765;28;20850;-40
2021/08/28 10:32:16;;;;;;;12.63;2.97;;;;;;;22.16;55.71;102142.13;5066398;28;20108;-42
2021/08/28 10:34:41;;;;;;;6.90;3.45;;;;;;;22.36;54.82;102150.16;5060827;28;20396;-40
2021/08/28 10:37:06;;;;;;;9.48;3.50;;;;;;;22.49;54.99;102152.75;5049448;28;20055;-41
2021/08/28 10:39:33;;;;;;;10.05;3.30;;;;;;;23.26;52.57;102152.13;5041199;28;20098;-41
2021/08/28 10:41:59;;;;;;;11.02;3.55;;;;;;;23.20;52.17;102153.91;5037052;28;20044;-41
2021/08/28 10:44:24;;;;;;;10.77;3.25;;;;;;;22.79;53.03;102160.19;5054701;28;20028;-41
2021/08/28 10:46:50;;;;;;;7.43;3.10;;;;;;;22.47;53.69;102149.41;5066913;28;20029;-40
2021/08/28 10:49:15;;;;;;;7.90;2.72;;;;;;;22.18;54.45;102152.88;5059925;28;20439;-41
2021/08/28 10:51:42;;;;;;;8.35;3.20;;;;;;;21.66;55.56;102150.41;5052396;28;20396;-41
2021/08/28 10:54:12;;;;;;;11.00;3.17;;;;;;;21.45;57.34;102154.38;5057594;28;20112;-41
2021/08/28 10:56:50;;;;;;;14.90;4.05;;;;;;;21.53;56.73;102151.38;5072212;28;20043;-40
2021/08/28 10:59:18;;;;;;;13.90;3.90;;;;;;;21.65;56.94;102156.97;5072642;28;20361;-40
2021/08/28 11:02:09;;;;;;;11.13;3.28;;;;;;;21.42;57.61;102154.84;5072341;28;20020;-42
2021/08/28 11:04:46;;;;;;;11.00;3.30;;;;;;;21.18;59.00;102149.06;5071454;28;20025;-41
2021/08/28 11:07:22;;;;;;;;;;;;;;;20.99;59.12;102155.53;5072631;28;20029;-41
2021/08/28 11:10:13;;;;;;;9.70;2.67;;;;;;;20.81;59.83;102153.50;5072450;28;20278;-41
2021/08/28 11:12:56;;;;;;;10.73;3.08;;;;;;;20.78;60.12;102159.41;5072283;28;20028;-41
2021/08/28 11:15:24;;;;;;;6.50;3.10;;;;;;;20.86;59.65;102152.84;5061793;28;20025;-40
2021/08/28 11:17:54;;;;;;;10.95;3.22;;;;;;;20.88;60.78;102156.19;5065168;28;20039;-40
2021/08/28 11:20:34;;;;;;;9.35;3.65;;;;;;;21.92;57.11;102154.81;5072187;28;20024;-40
2021/08/28 11:23:03;;;;;;;7.55;3.10;;;;;;;23.03;55.76;102160.31;5054570;28;20028;-40
2021/08/28 11:25:30;;;;;;;6.63;2.97;;;;;;;23.31;54.77;102160.50;5060917;28;20127;-41
2021/08/28 11:27:56;;;;;;;8.32;3.05;;;;;;;23.27;53.47;102166.72;5051992;28;20052;-41
2021/08/28 11:30:42;;;;;;;12.07;3.38;;;;;;;22.68;54.39;102160.97;5051816;28;20470;-40
2021/08/28 11:33:16;;;;;;;11.75;3.33;;;;;;;22.07;54.98;102163.53;5063083;28;20024;-40
2021/08/28 11:35:46;;;;;;;13.40;3.50;;;;;;;21.70;55.83;102163.44;5071724;28;20032;-41
2021/08/28 11:38:13;;;;;;;13.25;3.20;;;;;;;21.43;56.19;102161.97;5072106;28;20036;-40
2021/08/28 11:40:39;;;;;;;9.07;2.58;;;;;;;21.40;57.10;102170.63;5072134;28;20036;-41
2021/08/28 11:43:06;;;;;;;9.40;3.60;;;;;;;21.58;56.93;102167.97;5071986;28;20024;-41
2021/08/28 11:45:41;;;;;;;9.02;3.38;;;;;;;21.67;56.22;102152.94;5062194;28;20072;-40
2021/08/28 11:48:08;;;;;;;10.10;3.72;;;;;;;21.81;54.35;102167.34;5052272;28;20370;-39
2021/08/28 11:50:34;;;;;;;7.65;2.75;;;;;;;21.74;55.23;102161.09;5051966;28;20104;-40
2021/08/28 11:53:00;;;;;;;12.32;3.30;;;;;;;21.52;55.95;102170.78;5051702;28;20457;-41
2021/08/28 11:55:26;;;;;;;6.85;3.03;;;;;;;21.21;58.53;102162.31;5051515;28;20036;-41
2021/08/28 11:58:13;;;;;;;12.18;3.67;;;;;;;20.96;58.47;102169.66;5066517;28;20399;-41
2021/08/28 12:00:39;;;;;;;15.57;4.28;;;;;;;20.82;60.09;102160.66;5071985;28;20033;-40
2021/08/28 12:03:08;;;;;;;7.15;3.00;;;;;;;20.70;60.05;102179.66;5072149;28;20086;-39
2021/08/28 12:05:35;;;;;;;8.27;3.03;;;;;;;21.00;59.34;102179.91;5059426;28;20079;-40
2021/08/28 12:08:01;;;;;;;12.43;3.67;;;;;;;21.50;59.29;102179.22;5052063;28;20044;-40
2021/08/28 12:10:27;;;;;;;8.88;3.10;;;;;;;22.40;54.91;102177.97;5053319;28;20029;-40
2021/08/28 12:13:02;;;;;;;10.07;2.95;;;;;;;22.76;55.08;102183.44;5052877;28;20036;-40
2021/08/28 12:15:29;;;;;;;6.80;2.63;;;;;;;23.28;54.16;102174.72;5063517;28;20029;-40
2021/08/28 12:17:55;;;;;;;12.82;3.25;;;;;;;23.72;53.05;102175.28;5077467;28;20044;-41
2021/08/28 12:20:26;;;;;;;9.57;2.97;;;;;;;23.78;51.66;102179.03;5077319;28;20032;-40
2021/08/28 12:22:53;;;;;;;17.00;3.00;;;;;;;24.00;52.08;102176.50;5060372;28;20025;-40
2021/08/28 12:25:19;;;;;;;6.35;3.20;;;;;;;24.34;50.97;102165.72;5065524;28;20060;-39
2021/08/28 12:27:45;;;;;;;9.13;3.13;;;;;;;24.84;50.06;102171.47;5038213;28;20464;-39
2021/08/28 12:30:11;;;;;;;10.48;3.25;;;;;;;25.34;47.41;102169.94;5055522;28;20059;-40
2021/08/28 12:32:36;;;;;;;8.73;2.97;;;;;;;25.12;48.40;102162.38;5055520;28;20457;-41
2021/08/28 12:35:02;;;;;;;10.40;3.15;;;;;;;24.85;48.88;102172.28;5063999;28;20063;-40
2021/08/28 12:37:29;;;;;;;9.00;3.22;;;;;;;24.69;48.04;102169.22;5075194;28;20063;-40
2021/08/28 12:40:01;;;;;;;10.95;3.17;;;;;;;24.71;48.39;102177.25;5075104;28;20322;-40
2021/08/28 12:42:30;;;;;;;7.70;3.22;;;;;;;23.93;49.73;102164.78;5055870;28;20115;-40
2021/08/28 12:45:00;;;;;;;10.52;3.00;;;;;;;23.35;51.74;102180.94;5056704;28;20064;-41
2021/08/28 12:47:29;;;;;;;13.35;3.20;;;;;;;23.10;53.07;102172.03;5057276;28;20059;-41
2021/08/28 12:49:55;;;;;;;9.35;2.63;;;;;;;23.28;52.39;102174.72;5074963;28;20047;-42
2021/08/28 12:52:21;;;;;;;11.07;3.20;;;;;;;23.74;51.12;102172.31;5074921;28;20464;-42
2021/08/28 12:54:57;;;;;;;9.90;3.10;;;;;;;24.14;50.29;102166.09;5074978;28;20065;-41
2021/08/28 12:57:26;;;;;;;8.27;3.10;;;;;;;24.82;48.14;102175.53;5074754;28;20036;-41
2021/08/28 12:59:54;;;;;;;11.07;3.53;;;;;;;25.22;45.83;102174.66;5074961;28;20115;-41
2021/08/28 13:02:22;;;;;;;9.73;2.60;;;;;;;25.32;45.83;102172.94;5056895;28;20027;-39
2021/08/28 13:04:49;;;;;;;9.13;2.88;;;;;;;25.53;45.92;102168.59;5074705;28;20028;-39
2021/08/28 13:07:18;;;;;;;7.28;2.80;;;;;;;25.95;44.64;102170.97;5074715;28;20024;-40
2021/08/28 13:10:07;;;;;;;9.63;2.65;;;;;;;26.03;43.95;102166.94;5074506;28;20060;-41
2021/08/28 13:12:49;;;;;;;9.70;2.63;;;;;;;26.19;42.90;102181.78;5074483;28;20020;-40
2021/08/28 13:15:23;;;;;;;10.98;2.83;;;;;;;25.71;44.19;102177.72;5074606;28;20174;-41
2021/08/28 13:17:49;;;;;;;12.23;3.25;;;;;;;25.53;43.49;102181.56;5074486;28;20051;-41
2021/08/28 13:20:15;;;;;;;7.70;2.80;;;;;;;25.56;43.85;102168.09;5074136;28;20472;-41
2021/08/28 13:22:50;;;;;;;6.28;2.38;;;;;;;25.42;44.56;102175.03;5074057;28;20060;-41
2021/08/28 13:25:20;;;;;;;11.32;2.97;;;;;;;25.44;45.11;102167.38;5074215;28;20032;-41
2021/08/28 13:27:45;;;;;;;6.15;2.47;;;;;;;25.71;45.93;102170.28;5074078;28;20051;-41
2021/08/28 13:30:22;;;;;;;7.75;2.65;;;;;;;25.99;44.76;102174.88;5073809;28;20513;-41
2021/08/28 13:32:59;;;;;;;7.32;2.78;;;;;;;25.93;45.48;102173.13;5074091;28;20029;-40
2021/08/28 13:35:24;;;;;;;9.43;2.70;;;;;;;25.66;45.58;102175.72;5074371;28;20029;-40
2021/08/28 13:37:49;;;;;;;14.38;3.20;;;;;;;25.79;44.99;102177.31;5056094;28;20036;-41
2021/08/28 13:40:15;;;;;;;10.52;2.97;;;;;;;25.46;46.16;102172.59;5074068;28;20086;-41
2021/08/28 13:42:40;;;;;;;11.68;3.20;;;;;;;25.65;44.46;102176.81;5074025;28;20341;-40
2021/08/28 13:45:06;;;;;;;11.52;3.13;;;;;;;25.78;45.37;102170.13;5074044;28;20033;-41
2021/08/28 13:47:31;;;;;;;5.85;2.40;;;;;;;25.72;43.86;102176.63;5055995;28;20029;-41
2021/08/28 13:49:57;;;;;;;10.70;2.78;;;;;;;25.32;45.42;102183.13;5055955;28;20432;-41
2021/08/28 13:52:22;;;;;;;8.35;2.72;;;;;;;24.90;45.85;102177.91;5073847;28;20024;-41
2021/08/28 13:54:47;;;;;;;9.20;2.88;;;;;;;24.25;47.75;102177.09;5074028;28;20048;-41
2021/08/28 13:57:13;;;;;;;11.40;3.10;;;;;;;23.91;49.14;102177.94;5073797;28;20179;-41
2021/08/28 13:59:38;;;;;;;8.30;2.75;;;;;;;23.46;50.67;102184.81;5073776;28;20029;-41
2021/08/28 14:02:03;;;;;;;7.65;2.35;;;;;;;23.46;50.78;102190.31;5073661;28;20024;-41
2021/08/28 14:04:29;;;;;;;12.23;3.08;;;;;;;23.42;50.67;102184.44;5073601;28;20537;-40
2021/08/28 14:06:54;;;;;;;9.98;2.53;;;;;;;23.42;51.10;102167.94;5073502;28;20033;-41
2021/08/28 14:09:20;;;;;;;14.32;3.25;;;;;;;23.50;51.00;102171.44;5072465;28;20032;-41
2021/08/28 14:11:46;;;;;;;8.40;2.92;;;;;;;23.43;50.96;102183.38;5072574;28;20104;-41
2021/08/28 14:14:12;;;;;;;7.93;2.63;;;;;;;23.51;49.88;102175.84;5068986;28;20086;-41
2021/08/28 14:16:37;;;;;;;11.40;2.85;;;;;;;23.02;50.55;102180.63;5053325;28;20037;-40
2021/08/28 14:19:02;;;;;;;6.75;2.50;;;;;;;22.69;51.52;102174.44;5069267;28;20036;-40
2021/08/28 14:21:28;;;;;;;7.00;2.20;;;;;;;22.77;51.52;102167.78;5071694;28;20024;-42
2021/08/28 14:23:54;;;;;;;9.98;2.70;;;;;;;22.67;52.01;102170.25;5069350;28;20456;-42
2021/08/28 14:26:19;;;;;;;10.43;2.70;;;;;;;22.66;52.16;102182.31;5069292;28;20529;-41
2021/08/28 14:28:45;;;;;;;9.38;2.33;;;;;;;22.62;51.82;102170.09;5061586;28;20131;-41
2021/08/28 14:31:10;;;;;;;9.40;3.20;;;;;;;22.41;51.91;102169.53;5049219;28;20377;-41
2021/08/28 14:33:36;;;;;;;9.10;3.00;;;;;;;22.45;51.49;102167.97;5046872;28;20041;-40
2021/08/28 14:36:02;;;;;;;10.02;2.95;;;;;;;22.51;52.02;102175.31;5067762;28;20020;-42
2021/08/28 14:38:28;;;;;;;8.43;2.58;;;;;;;22.41;52.61;102161.28;5069976;28;20028;-42
2021/08/28 14:40:53;;;;;;;10.85;2.95;;;;;;;22.30;53.39;102173.00;5063652;28;20032;-41
2021/08/28 14:43:18;;;;;;;10.50;2.83;;;;;;;22.46;53.57;102175.16;5059124;28;20117;-41
2021/08/28 14:45:44;;;;;;;11.77;2.53;;;;;;;22.72;52.39;102186.84;5044262;28;20404;-41
2021/08/28 14:48:10;;;;;;;8.18;2.47;;;;;;;22.55;52.29;102183.91;5072346;28;20460;-40
2021/08/28 14:50:35;;;;;;;7.97;2.80;;;;;;;22.25;53.10;102173.72;5071140;28;20036;-40
2021/08/28 14:53:01;;;;;;;8.55;2.50;;;;;;;22.05;52.74;102182.09;5072236;28;20099;-41
2021/08/28 14:55:26;;;;;;;10.23;3.40;;;;;;;21.86;53.40;102177.66;5064116;28;20027;-41
2021/08/28 14:57:51;;;;;;;8.55;3.25;;;;;;;21.80;53.70;102178.53;5052386;28;20382;-40
2021/08/28 15:00:17;;;;;;;5.60;2.17;;;;;;;21.88;53.70;102191.94;5034758;28;20119;-41
2021/08/28 15:02:42;;;;;;;9.43;2.67;;;;;;;21.96;53.74;102193.56;5069555;28;20115;-40
2021/08/28 15:05:08;;;;;;;7.80;3.00;;;;;;;21.80;52.41;102189.50;5067190;28;20036;-41
2021/08/28 15:07:34;;;;;;;9.10;2.40;;;;;;;21.48;53.27;102189.53;5067456;28;20689;-41
2021/08/28 15:09:59;;;;;;;9.65;2.90;;;;;;;21.37;54.72;102184.75;5067415;28;20033;-40
2021/08/28 15:12:24;;;;;;;11.75;2.50;;;;;;;21.29;55.86;102187.75;5057312;28;20060;-40
2021/08/28 15:14:50;;;;;;;11.35;3.30;;;;;;;21.21;56.61;102197.91;5063567;28;20021;-41
2021/08/28 15:17:15;;;;;;;10.70;3.22;;;;;;;20.98;57.37;102187.50;5050759;28;20377;-40
2021/08/28 15:19:41;;;;;;;20.00;3.15;;;;;;;20.78;58.17;102187.63;5048940;28;20067;-40
2021/08/28 15:22:06;;;;;;;13.68;2.63;;;;;;;20.68;58.25;102189.97;5066958;28;20621;-41
2021/08/28 15:24:33;;;;;;;9.20;2.35;;;;;;;20.69;58.38;102188.06;5061353;28;20025;-40
2021/08/28 15:26:59;;;;;;;11.43;2.33;;;;;;;20.73;58.61;102195.63;5068460;28;20474;-41
2021/08/28 15:29:24;;;;;;;12.15;2.72;;;;;;;20.77;58.41;102199.63;5052102;28;20064;-41
2021/08/28 15:31:50;;;;;;;9.00;2.22;;;;;;;20.92;57.78;102193.03;5052100;28;20544;-40
2021/08/28 15:34:16;;;;;;;14.18;2.33;;;;;;;20.74;57.46;102197.28;5017896;28;20119;-41
2021/08/28 15:36:41;;;;;;;13.13;3.20;;;;;;;20.74;58.11;102197.28;5058565;28;20100;-41
2021/08/28 15:39:06;;;;;;;8.85;2.20;;;;;;;20.70;57.56;102204.28;5069748;28;20120;-41
2021/08/28 15:41:32;;;;;;;9.13;2.28;;;;;;;20.58;58.03;102206.00;5034274;28;20068;-40